Badlands Natl Park, South Dakota
Current Conditions -  °F | °C
As of 8:55 PM on Tuesday 27 Jan 2015 (Local Time) from KPHP Reporting Station
Clear Clear  
Wind Chill: 38°   Ceiling: Unl
Heat Index: 38°   Visibility: 10mi
Dew Point: 28°   Wind: 0mph
Humidity: 68%   Direction: NA
Pressure: 29.79"   Gusts: NA
Location:  43.78°N, 102.25°W
Report Text: KPHP 280355Z AUTO 00000KT 10SM CLR 03/M02 A2979 RMK AO2 SLP097 T00331022
Loading
Personal Weather Stations






























Interactive Weather Map New forecast layout! Learn more

10-Day Weather Forecast

Advertisements
Track Severe Weather on mobile